Time;durP1;ratioP1;P1;durP2;ratioP2;P2;SDS_P1;SDS_P2;PMS_P1;PMS_P2;Temp;Humidity;BMP_temperature;BMP_pressure;BME280_temperature;BME280_humidity;BME280_pressure;Samples;Min_cycle;Max_cycle;Signal;HPM_P1;HPM_P2
2023/08/16 00:02:14;;;;;;;13.57;7.83;;;;;;;;;;5048495;28;20047;-61
2023/08/16 00:04:41;;;;;;;13.13;7.73;;;;;;;;;;5060552;28;20080;-61
2023/08/16 00:07:08;;;;;;;11.87;6.87;;;;;;;;;;5069088;28;20562;-61
2023/08/16 00:09:34;;;;;;;15.60;8.57;;;;;;;;;;5068706;28;20132;-60
2023/08/16 00:12:00;;;;;;;15.90;9.00;;;;;;;;;;5068139;28;20414;-61
2023/08/16 00:14:26;;;;;;;13.37;8.80;;;;;;;;;;5068944;28;20056;-61
2023/08/16 00:16:52;;;;;;;14.60;9.53;;;;;;;;;;5066987;28;20492;-61
2023/08/16 00:19:18;;;;;;;18.13;8.53;;;;;;;;;;5068988;28;20048;-61
2023/08/16 00:21:44;;;;;;;15.67;9.07;;;;;;;;;;5068736;28;20624;-60
2023/08/16 00:24:10;;;;;;;10.53;6.50;;;;;;;;;;5068782;28;20037;-61
2023/08/16 00:26:36;;;;;;;13.43;6.60;;;;;;;;;;5068248;28;20047;-61
2023/08/16 00:29:02;;;;;;;9.43;6.27;;;;;;;;;;5068671;28;20130;-61
2023/08/16 00:31:28;;;;;;;12.03;6.17;;;;;;;;;;5068551;28;20081;-61
2023/08/16 00:33:54;;;;;;;10.90;6.43;;;;;;;;;;5056040;28;20047;-61
2023/08/16 00:36:21;;;;;;;13.93;7.30;;;;;;;;;;5048387;28;20049;-61
2023/08/16 00:38:47;;;;;;;9.07;6.53;;;;;;;;;;5048116;28;20132;-61
2023/08/16 00:41:13;;;;;;;8.47;5.57;;;;;;;;;;5047682;28;20140;-61
2023/08/16 00:43:39;;;;;;;10.57;6.57;;;;;;;;;;5048516;28;20526;-61
2023/08/16 00:46:08;;;;;;;12.43;7.37;;;;;;;;;;5048547;28;20056;-61
2023/08/16 00:48:35;;;;;;;14.90;8.53;;;;;;;;;;5047949;28;20099;-61
2023/08/16 00:51:01;;;;;;;13.30;9.63;;;;;;;;;;5048886;28;20102;-60
2023/08/16 00:53:29;;;;;;;16.60;9.93;;;;;;;;;;5059401;28;20132;-60
2023/08/16 00:55:55;;;;;;;17.70;9.90;;;;;;;;;;5068355;28;20056;-60
2023/08/16 00:58:21;;;;;;;14.97;9.73;;;;;;;;;;5067910;28;20048;-61
2023/08/16 01:00:47;;;;;;;16.57;9.23;;;;;;;;;;5068238;28;20047;-60
2023/08/16 01:03:13;;;;;;;16.23;9.60;;;;;;;;;;5068391;28;20061;-60
2023/08/16 01:05:39;;;;;;;13.93;9.17;;;;;;;;;;5068161;28;20517;-60
2023/08/16 01:08:05;;;;;;;8.97;6.77;;;;;;;;;;5054237;28;20461;-60
2023/08/16 01:10:50;;;;;;;14.60;8.70;;;;;;;;;;5048320;28;20049;-61
2023/08/16 01:13:21;;;;;;;15.03;9.77;;;;;;;;;;5048411;28;20106;-60
2023/08/16 01:15:49;;;;;;;15.13;10.20;;;;;;;;;;5047626;28;20045;-60
2023/08/16 01:18:15;;;;;;;17.30;10.87;;;;;;;;;;5048327;28;20045;-61
2023/08/16 01:20:44;;;;;;;17.27;10.07;;;;;;;;;;5048028;28;20041;-61
2023/08/16 01:23:14;;;;;;;18.20;10.20;;;;;;;;;;5048132;28;20124;-60
2023/08/16 01:25:48;;;;;;;18.53;9.13;;;;;;;;;;5048290;28;20045;-60
2023/08/16 01:28:15;;;;;;;20.67;8.77;;;;;;;;;;5048054;28;20419;-61
2023/08/16 01:30:42;;;;;;;13.17;8.70;;;;;;;;;;5048031;28;20037;-60
2023/08/16 01:33:11;;;;;;;14.17;8.40;;;;;;;;;;5047767;28;20049;-61
2023/08/16 01:35:38;;;;;;;12.00;6.93;;;;;;;;;;5047975;28;20056;-61
2023/08/16 01:38:04;;;;;;;10.67;6.40;;;;;;;;;;5047946;28;20056;-61
2023/08/16 01:40:31;;;;;;;9.77;6.60;;;;;;;;;;5048621;28;20045;-61
2023/08/16 01:42:58;;;;;;;13.70;6.83;;;;;;;;;;5047485;28;20081;-60
2023/08/16 01:45:25;;;;;;;17.17;7.77;;;;;;;;;;5048009;28;20048;-61
2023/08/16 01:47:52;;;;;;;14.30;9.27;;;;;;;;;;5060818;28;20601;-60
2023/08/16 01:50:18;;;;;;;17.47;8.33;;;;;;;;;;5051436;28;20120;-61
2023/08/16 01:52:44;;;;;;;13.80;8.27;;;;;;;;;;5050156;28;20502;-60
2023/08/16 01:55:11;;;;;;;10.43;7.33;;;;;;;;;;5055772;28;20052;-61
2023/08/16 01:57:37;;;;;;;12.07;7.20;;;;;;;;;;5053091;28;20148;-60
2023/08/16 02:00:03;;;;;;;12.33;8.63;;;;;;;;;;5064623;28;20057;-61
2023/08/16 02:02:29;;;;;;;13.47;8.83;;;;;;;;;;5055493;28;20048;-61
2023/08/16 02:04:55;;;;;;;14.40;9.03;;;;;;;;;;5057707;28;20053;-60
2023/08/16 02:07:21;;;;;;;17.63;9.80;;;;;;;;;;5051227;28;20518;-61
2023/08/16 02:09:47;;;;;;;13.53;9.27;;;;;;;;;;5071205;28;20495;-60
2023/08/16 02:12:14;;;;;;;21.40;9.53;;;;;;;;;;5070881;28;20457;-60
2023/08/16 02:14:39;;;;;;;14.23;9.73;;;;;;;;;;5069086;28;20507;-61
2023/08/16 02:17:05;;;;;;;20.47;12.23;;;;;;;;;;5051242;28;20048;-61
2023/08/16 02:19:31;;;;;;;14.67;8.80;;;;;;;;;;5051176;28;20045;-60
2023/08/16 02:21:57;;;;;;;14.73;8.20;;;;;;;;;;5070771;28;20114;-60
2023/08/16 02:24:23;;;;;;;16.27;9.03;;;;;;;;;;5070536;28;20139;-60
2023/08/16 02:26:49;;;;;;;17.60;9.40;;;;;;;;;;5071058;28;20044;-60
2023/08/16 02:29:15;;;;;;;23.07;10.43;;;;;;;;;;5070672;28;20052;-60
2023/08/16 02:31:42;;;;;;;19.50;10.63;;;;;;;;;;5068604;28;20577;-60
2023/08/16 02:34:08;;;;;;;25.23;13.97;;;;;;;;;;5050977;28;20045;-60
2023/08/16 02:36:34;;;;;;;19.93;10.53;;;;;;;;;;5050087;28;20041;-61
2023/08/16 02:39:01;;;;;;;17.70;11.90;;;;;;;;;;5050837;28;20053;-61
2023/08/16 02:41:27;;;;;;;17.30;10.97;;;;;;;;;;5050680;28;20053;-61
2023/08/16 02:43:53;;;;;;;20.00;10.93;;;;;;;;;;5050662;28;20521;-60
2023/08/16 02:46:19;;;;;;;22.27;12.90;;;;;;;;;;5050606;28;20045;-61
2023/08/16 02:48:45;;;;;;;19.83;12.10;;;;;;;;;;5051288;28;20048;-60
2023/08/16 02:51:11;;;;;;;22.00;12.63;;;;;;;;;;5049940;28;20041;-60
2023/08/16 02:53:37;;;;;;;16.27;9.50;;;;;;;;;;5050490;28;20099;-60
2023/08/16 02:56:03;;;;;;;19.80;11.37;;;;;;;;;;5050421;28;20055;-60
2023/08/16 02:58:29;;;;;;;22.63;12.23;;;;;;;;;;5070192;28;20538;-61
2023/08/16 03:00:56;;;;;;;17.83;10.20;;;;;;;;;;5070033;28;20407;-60
2023/08/16 03:03:22;;;;;;;16.77;9.27;;;;;;;;;;5069576;28;20067;-61
2023/08/16 03:05:48;;;;;;;24.07;11.03;;;;;;;;;;5067042;28;20402;-61
2023/08/16 03:08:14;;;;;;;19.53;11.23;;;;;;;;;;5050280;28;20087;-60
2023/08/16 03:10:40;;;;;;;19.77;9.57;;;;;;;;;;5049608;28;20045;-61
2023/08/16 03:13:06;;;;;;;18.80;10.07;;;;;;;;;;5049864;28;20052;-60
2023/08/16 03:15:33;;;;;;;23.83;13.23;;;;;;;;;;5050020;28;20481;-60
2023/08/16 03:17:59;;;;;;;30.97;15.40;;;;;;;;;;5050126;28;20041;-60
2023/08/16 03:20:25;;;;;;;26.23;14.27;;;;;;;;;;5049658;28;20257;-61
2023/08/16 03:22:51;;;;;;;33.33;14.27;;;;;;;;;;5050024;28;20053;-60
2023/08/16 03:25:17;;;;;;;25.17;14.47;;;;;;;;;;5050157;28;20048;-60
2023/08/16 03:27:43;;;;;;;22.03;12.70;;;;;;;;;;5050177;28;20588;-60
2023/08/16 03:30:10;;;;;;;22.03;11.80;;;;;;;;;;5049275;28;20076;-60
2023/08/16 03:32:36;;;;;;;28.17;12.93;;;;;;;;;;5060113;28;20045;-60
2023/08/16 03:35:03;;;;;;;21.33;13.17;;;;;;;;;;5069781;28;20049;-60
2023/08/16 03:37:29;;;;;;;20.53;12.50;;;;;;;;;;5069425;28;20048;-60
2023/08/16 03:39:57;;;;;;;23.20;14.03;;;;;;;;;;5065636;28;20793;-60
2023/08/16 03:42:23;;;;;;;23.73;14.53;;;;;;;;;;5049684;28;20056;-60
2023/08/16 03:44:49;;;;;;;23.93;13.53;;;;;;;;;;5048922;28;20037;-60
2023/08/16 03:47:15;;;;;;;25.33;13.20;;;;;;;;;;5049537;28;20044;-60
2023/08/16 03:49:44;;;;;;;22.77;12.50;;;;;;;;;;5049509;28;20052;-60
2023/08/16 03:52:10;;;;;;;26.67;12.60;;;;;;;;;;5049204;28;20045;-60
2023/08/16 03:54:36;;;;;;;22.73;12.40;;;;;;;;;;5049099;28;20378;-60
2023/08/16 03:57:02;;;;;;;25.87;11.87;;;;;;;;;;5050853;28;20414;-60
2023/08/16 03:59:28;;;;;;;25.63;11.53;;;;;;;;;;5049111;28;20044;-60
2023/08/16 04:01:54;;;;;;;21.87;10.80;;;;;;;;;;5049433;28;20083;-60
2023/08/16 04:04:20;;;;;;;18.30;9.77;;;;;;;;;;5048628;28;20107;-61
2023/08/16 04:06:46;;;;;;;20.27;10.10;;;;;;;;;;5048425;28;20049;-60
2023/08/16 04:09:12;;;;;;;17.73;9.40;;;;;;;;;;5049178;28;20522;-60
2023/08/16 04:11:38;;;;;;;20.03;10.63;;;;;;;;;;5048247;28;20045;-60
2023/08/16 04:14:04;;;;;;;27.23;12.43;;;;;;;;;;5049212;28;20384;-60
2023/08/16 04:16:30;;;;;;;18.60;9.30;;;;;;;;;;5048979;28;20415;-60
2023/08/16 04:18:56;;;;;;;20.70;10.17;;;;;;;;;;5048321;28;20051;-60
2023/08/16 04:21:22;;;;;;;22.63;10.80;;;;;;;;;;5048621;28;20041;-60
2023/08/16 04:23:48;;;;;;;23.83;11.57;;;;;;;;;;5048847;28;20041;-60
2023/08/16 04:26:14;;;;;;;16.73;9.30;;;;;;;;;;5048674;28;20064;-60
2023/08/16 04:28:40;;;;;;;19.70;10.37;;;;;;;;;;5048151;28;20052;-60
2023/08/16 04:31:06;;;;;;;19.13;9.90;;;;;;;;;;5049135;28;20048;-60
2023/08/16 04:33:32;;;;;;;27.80;12.60;;;;;;;;;;5048103;28;20120;-60
2023/08/16 04:35:58;;;;;;;27.77;12.83;;;;;;;;;;5048261;28;20095;-60
2023/08/16 04:38:24;;;;;;;25.93;13.07;;;;;;;;;;5048419;28;20127;-60
2023/08/16 04:40:50;;;;;;;22.50;10.70;;;;;;;;;;5048067;28;20052;-60
2023/08/16 04:43:16;;;;;;;25.80;10.67;;;;;;;;;;5048342;28;20499;-60
2023/08/16 04:45:43;;;;;;;14.10;8.80;;;;;;;;;;5048517;28;20081;-60
2023/08/16 04:48:09;;;;;;;22.70;11.63;;;;;;;;;;5049060;28;20099;-61
2023/08/16 04:50:35;;;;;;;25.73;11.13;;;;;;;;;;5048219;28;20045;-60
2023/08/16 04:53:02;;;;;;;19.37;9.70;;;;;;;;;;5047473;28;20495;-61
2023/08/16 04:55:28;;;;;;;24.63;12.10;;;;;;;;;;5048230;28;20045;-61
2023/08/16 04:57:54;;;;;;;23.80;13.40;;;;;;;;;;5063635;28;20076;-60
2023/08/16 05:00:21;;;;;;;28.00;13.33;;;;;;;;;;5068058;28;20044;-60
2023/08/16 05:02:47;;;;;;;26.40;13.17;;;;;;;;;;5067978;28;20060;-61
2023/08/16 05:05:13;;;;;;;31.13;14.63;;;;;;;;;;5061697;28;20045;-61
2023/08/16 05:07:39;;;;;;;28.17;14.17;;;;;;;;;;5048062;28;20454;-60
2023/08/16 05:10:06;;;;;;;18.97;9.77;;;;;;;;;;5047677;28;20135;-60
2023/08/16 05:12:32;;;;;;;16.47;8.60;;;;;;;;;;5047960;28;20084;-60
2023/08/16 05:14:58;;;;;;;20.07;9.80;;;;;;;;;;5048038;28;20084;-61
2023/08/16 05:17:24;;;;;;;17.17;8.03;;;;;;;;;;5047800;28;20418;-61
2023/08/16 05:19:50;;;;;;;17.23;10.10;;;;;;;;;;5049654;28;20049;-60
2023/08/16 05:22:16;;;;;;;24.90;12.13;;;;;;;;;;5047343;28;20530;-60
2023/08/16 05:24:42;;;;;;;28.57;12.33;;;;;;;;;;5050781;28;20387;-61
2023/08/16 05:27:12;;;;;;;28.97;14.30;;;;;;;;;;5052320;28;20052;-60
2023/08/16 05:29:39;;;;;;;26.40;13.40;;;;;;;;;;5052724;28;20392;-60
2023/08/16 05:32:05;;;;;;;28.10;13.27;;;;;;;;;;5067468;28;20115;-61
2023/08/16 05:34:31;;;;;;;29.23;17.20;;;;;;;;;;5058565;28;20048;-60
2023/08/16 05:36:57;;;;;;;31.33;16.97;;;;;;;;;;5071406;28;20046;-61
2023/08/16 05:39:23;;;;;;;26.13;15.33;;;;;;;;;;5068891;28;20410;-60
2023/08/16 05:41:49;;;;;;;38.77;19.43;;;;;;;;;;5071483;28;20041;-60
2023/08/16 05:44:15;;;;;;;45.33;19.87;;;;;;;;;;5071112;28;20155;-60
2023/08/16 05:46:41;;;;;;;42.80;20.00;;;;;;;;;;5071238;28;20055;-60
2023/08/16 05:49:07;;;;;;;41.57;19.63;;;;;;;;;;5071497;28;20036;-60
2023/08/16 05:51:33;;;;;;;34.93;18.93;;;;;;;;;;5061260;28;20525;-60
2023/08/16 05:53:59;;;;;;;39.53;19.90;;;;;;;;;;5051193;28;20045;-60
2023/08/16 05:56:25;;;;;;;37.87;20.20;;;;;;;;;;5051388;28;20548;-60
2023/08/16 05:58:51;;;;;;;45.00;21.30;;;;;;;;;;5051340;28;20068;-60
2023/08/16 06:01:17;;;;;;;31.17;18.10;;;;;;;;;;5051237;28;20588;-61
2023/08/16 06:03:43;;;;;;;28.00;18.37;;;;;;;;;;5050872;28;20418;-60
2023/08/16 06:06:09;;;;;;;44.33;23.93;;;;;;;;;;5051044;28;20368;-60
2023/08/16 06:08:35;;;;;;;44.07;24.87;;;;;;;;;;5051042;28;20041;-60
2023/08/16 06:11:01;;;;;;;48.40;26.20;;;;;;;;;;5050518;28;20083;-60
2023/08/16 06:13:27;;;;;;;55.63;26.03;;;;;;;;;;5051369;28;20416;-61
2023/08/16 06:15:53;;;;;;;49.90;25.00;;;;;;;;;;5051069;28;20053;-60
2023/08/16 06:18:19;;;;;;;49.83;27.07;;;;;;;;;;5050796;28;20057;-60
2023/08/16 06:20:45;;;;;;;51.40;27.73;;;;;;;;;;5050713;28;20138;-60
2023/08/16 06:23:11;;;;;;;45.60;25.70;;;;;;;;;;5050581;28;20040;-61
2023/08/16 06:25:37;;;;;;;44.93;26.17;;;;;;;;;;5050748;28;20048;-61
2023/08/16 06:28:04;;;;;;;55.40;29.93;;;;;;;;;;5060443;28;20123;-60
2023/08/16 06:30:30;;;;;;;55.40;28.37;;;;;;;;;;5061945;28;20045;-61
2023/08/16 06:32:56;;;;;;;50.97;28.77;;;;;;;;;;5050806;28;20040;-60
2023/08/16 06:35:22;;;;;;;42.67;24.50;;;;;;;;;;5051568;28;20055;-60
2023/08/16 06:37:48;;;;;;;46.40;26.67;;;;;;;;;;5070262;28;20048;-61
2023/08/16 06:40:14;;;;;;;45.57;25.47;;;;;;;;;;5070682;28;20410;-60
2023/08/16 06:42:40;;;;;;;34.33;20.77;;;;;;;;;;5070246;28;20048;-61
2023/08/16 06:45:07;;;;;;;34.90;19.47;;;;;;;;;;5070096;28;20086;-61
2023/08/16 06:47:33;;;;;;;41.93;23.13;;;;;;;;;;5061241;28;20052;-61
2023/08/16 06:49:59;;;;;;;41.33;21.37;;;;;;;;;;5050513;28;20049;-61
2023/08/16 06:52:24;;;;;;;36.53;20.37;;;;;;;;;;5049637;28;20365;-61
2023/08/16 06:54:50;;;;;;;40.67;23.13;;;;;;;;;;5050449;28;20058;-60
2023/08/16 06:57:16;;;;;;;31.93;20.57;;;;;;;;;;5050300;28;20529;-61
2023/08/16 06:59:42;;;;;;;34.70;21.43;;;;;;;;;;5049751;28;20045;-61
2023/08/16 07:02:11;;;;;;;37.83;23.07;;;;;;;;;;5050209;28;20052;-61
2023/08/16 07:04:38;;;;;;;32.87;22.93;;;;;;;;;;5050112;28;20061;-61
2023/08/16 07:07:05;;;;;;;34.40;22.63;;;;;;;;;;5049994;28;20045;-61
2023/08/16 07:09:31;;;;;;;27.80;20.30;;;;;;;;;;5050036;28;20457;-60
2023/08/16 07:11:57;;;;;;;32.07;21.43;;;;;;;;;;5050368;28;20044;-61
2023/08/16 07:14:23;;;;;;;29.40;20.27;;;;;;;;;;5049628;28;20522;-60
2023/08/16 07:16:51;;;;;;;32.20;21.03;;;;;;;;;;5049190;28;20052;-62
2023/08/16 07:19:17;;;;;;;23.27;16.43;;;;;;;;;;5049717;28;20400;-61
2023/08/16 07:21:43;;;;;;;25.97;16.43;;;;;;;;;;5056807;28;20532;-61
2023/08/16 07:24:09;;;;;;;21.43;14.70;;;;;;;;;;5049795;28;20033;-61
2023/08/16 07:26:35;;;;;;;26.20;14.77;;;;;;;;;;5049733;28;20102;-61
2023/08/16 07:29:01;;;;;;;23.33;13.57;;;;;;;;;;5067635;28;20390;-61
2023/08/16 07:31:27;;;;;;;19.87;14.17;;;;;;;;;;5055871;28;20036;-60
2023/08/16 07:33:53;;;;;;;19.77;11.53;;;;;;;;;;5068009;28;20044;-61
2023/08/16 07:36:19;;;;;;;14.47;9.33;;;;;;;;;;5062402;28;20068;-61
2023/08/16 07:38:47;;;;;;;15.87;12.00;;;;;;;;;;5064707;28;20049;-60
2023/08/16 07:41:13;;;;;;;14.90;10.07;;;;;;;;;;5067005;28;20619;-61
2023/08/16 07:43:39;;;;;;;16.50;10.97;;;;;;;;;;5051944;28;20076;-61
2023/08/16 07:46:05;;;;;;;16.60;9.93;;;;;;;;;;5068847;28;20099;-61
2023/08/16 07:48:31;;;;;;;18.37;10.53;;;;;;;;;;5068534;28;20040;-60
2023/08/16 07:50:57;;;;;;;13.87;9.07;;;;;;;;;;5056750;28;20037;-61
2023/08/16 07:53:23;;;;;;;13.60;8.30;;;;;;;;;;5056471;28;20746;-60
2023/08/16 07:55:49;;;;;;;13.33;7.13;;;;;;;;;;5068304;28;20052;-60
2023/08/16 07:58:15;;;;;;;12.60;7.57;;;;;;;;;;5068682;28;20502;-60
2023/08/16 08:00:42;;;;;;;11.70;6.07;;;;;;;;;;5068053;28;20484;-60
2023/08/16 08:03:09;;;;;;;9.60;6.30;;;;;;;;;;5068363;28;20055;-61
2023/08/16 08:05:36;;;;;;;8.30;6.07;;;;;;;;;;5068460;28;20124;-61
2023/08/16 08:08:02;;;;;;;11.30;5.70;;;;;;;;;;5060339;28;20498;-61
2023/08/16 08:10:30;;;;;;;12.37;5.80;;;;;;;;;;5064031;28;20036;-60
2023/08/16 08:12:56;;;;;;;11.13;5.07;;;;;;;;;;5064396;28;20066;-60
2023/08/16 08:15:22;;;;;;;9.00;4.40;;;;;;;;;;5048411;28;20043;-61
2023/08/16 08:17:48;;;;;;;6.37;3.40;;;;;;;;;;5047759;28;20037;-61
2023/08/16 08:20:14;;;;;;;7.73;3.63;;;;;;;;;;5048353;28;20400;-60
2023/08/16 08:22:40;;;;;;;6.10;2.80;;;;;;;;;;5053578;28;20114;-61
2023/08/16 08:25:07;;;;;;;6.83;3.00;;;;;;;;;;5055283;28;20048;-60
2023/08/16 08:27:33;;;;;;;4.70;1.90;;;;;;;;;;5068530;28;20056;-61
2023/08/16 08:29:59;;;;;;;4.87;2.37;;;;;;;;;;5057670;28;20513;-61
2023/08/16 08:32:25;;;;;;;5.70;1.90;;;;;;;;;;5050778;28;20381;-61
2023/08/16 08:34:51;;;;;;;5.33;2.07;;;;;;;;;;5051435;28;20098;-61
2023/08/16 08:37:17;;;;;;;6.03;1.87;;;;;;;;;;5052244;28;20047;-61
2023/08/16 08:39:43;;;;;;;4.50;1.90;;;;;;;;;;5052198;28;20506;-61
2023/08/16 08:42:10;;;;;;;4.37;1.40;;;;;;;;;;5061553;28;20091;-61
2023/08/16 08:44:39;;;;;;;4.53;1.60;;;;;;;;;;5067581;28;20148;-61
2023/08/16 08:47:07;;;;;;;4.80;1.53;;;;;;;;;;5067365;28;20040;-61
2023/08/16 08:49:36;;;;;;;5.67;2.17;;;;;;;;;;5067588;28;20578;-61
2023/08/16 08:52:03;;;;;;;3.67;1.23;;;;;;;;;;5065971;28;20052;-61
2023/08/16 08:54:30;;;;;;;8.50;1.50;;;;;;;;;;5067313;28;20052;-61
2023/08/16 08:56:59;;;;;;;2.90;1.73;;;;;;;;;;5067124;28;20048;-61
2023/08/16 08:59:25;;;;;;;3.03;1.33;;;;;;;;;;5072459;28;20052;-61
2023/08/16 09:01:52;;;;;;;5.40;1.20;;;;;;;;;;5074626;28;20072;-61
2023/08/16 09:04:18;;;;;;;4.53;1.17;;;;;;;;;;5074065;28;20061;-61
2023/08/16 09:06:44;;;;;;;3.60;1.73;;;;;;;;;;5072863;28;20214;-61
2023/08/16 09:09:12;;;;;;;3.87;1.07;;;;;;;;;;5074147;28;20414;-61
2023/08/16 09:11:38;;;;;;;3.83;1.13;;;;;;;;;;5070634;28;20087;-61
2023/08/16 09:14:04;;;;;;;5.00;1.10;;;;;;;;;;5054459;28;20500;-61
2023/08/16 09:16:30;;;;;;;4.13;1.27;;;;;;;;;;5053471;28;20415;-61
2023/08/16 09:18:57;;;;;;;4.43;1.17;;;;;;;;;;5054463;28;20048;-61
2023/08/16 09:21:24;;;;;;;3.17;1.40;;;;;;;;;;5054072;28;20418;-61
2023/08/16 09:23:57;;;;;;;3.27;1.27;;;;;;;;;;5053914;28;20045;-61
2023/08/16 09:26:23;;;;;;;3.00;1.02;;;;;;;;;;5054056;28;20041;-61
2023/08/16 09:28:55;;;;;;;3.63;1.50;;;;;;;;;;5054250;28;20404;-61
2023/08/16 09:31:21;;;;;;;2.63;1.40;;;;;;;;;;5053503;28;20091;-61
2023/08/16 09:33:47;;;;;;;3.20;1.40;;;;;;;;;;5054109;28;20126;-61
2023/08/16 09:36:17;;;;;;;5.97;1.00;;;;;;;;;;5061960;28;20055;-61
2023/08/16 09:38:44;;;;;;;2.33;1.00;;;;;;;;;;5074443;28;20577;-61
2023/08/16 09:41:15;;;;;;;2.72;1.00;;;;;;;;;;5073112;28;20127;-61
2023/08/16 09:43:41;;;;;;;5.22;1.23;;;;;;;;;;5073051;28;20085;-61
2023/08/16 09:46:07;;;;;;;2.88;0.77;;;;;;;;;;5069910;28;20053;-61
2023/08/16 09:48:33;;;;;;;4.45;1.27;;;;;;;;;;5074340;28;20048;-61
2023/08/16 09:51:01;;;;;;;5.65;1.20;;;;;;;;;;5070295;28;20499;-61
2023/08/16 09:53:27;;;;;;;4.43;1.00;;;;;;;;;;5073066;28;20048;-62
2023/08/16 09:55:55;;;;;;;4.30;0.90;;;;;;;;;;5061352;28;21570;-61
2023/08/16 09:58:22;;;;;;;5.13;1.08;;;;;;;;;;5055654;28;20134;-61
2023/08/16 10:00:48;;;;;;;2.55;0.90;;;;;;;;;;5053103;28;20526;-61
2023/08/16 10:03:16;;;;;;;3.00;1.00;;;;;;;;;;5059007;28;20056;-61
2023/08/16 10:05:43;;;;;;;3.10;1.10;;;;;;;;;;5053792;28;20057;-61
2023/08/16 10:08:10;;;;;;;2.45;1.13;;;;;;;;;;5053566;28;20040;-61
2023/08/16 10:10:37;;;;;;;3.67;1.20;;;;;;;;;;5053790;28;20045;-61
2023/08/16 10:13:04;;;;;;;3.45;1.02;;;;;;;;;;5050397;28;20049;-61
2023/08/16 10:15:32;;;;;;;3.28;1.15;;;;;;;;;;5050432;28;20080;-61
2023/08/16 10:18:00;;;;;;;3.85;1.50;;;;;;;;;;5050742;28;20131;-61
2023/08/16 10:20:27;;;;;;;3.28;0.90;;;;;;;;;;5069083;28;20048;-61
2023/08/16 10:23:00;;;;;;;2.55;1.10;;;;;;;;;;5067558;28;20044;-61
2023/08/16 10:25:28;;;;;;;2.33;0.70;;;;;;;;;;5055699;28;20821;-62
2023/08/16 10:27:56;;;;;;;2.40;0.95;;;;;;;;;;5070089;28;20148;-61
2023/08/16 10:30:23;;;;;;;3.03;0.80;;;;;;;;;;5070717;28;20055;-62
2023/08/16 10:32:55;;;;;;;1.95;0.90;;;;;;;;;;5069965;28;20044;-62
2023/08/16 10:35:21;;;;;;;2.70;1.02;;;;;;;;;;5057679;28;20140;-61
2023/08/16 10:37:48;;;;;;;1.85;0.90;;;;;;;;;;5061083;28;20090;-62
2023/08/16 10:40:18;;;;;;;4.80;1.20;;;;;;;;;;5058143;28;20396;-61
2023/08/16 10:43:13;;;;;;;1.92;0.73;;;;;;;;;;5069356;28;20659;-62
2023/08/16 10:45:45;;;;;;;2.50;0.90;;;;;;;;;;5064468;28;20098;-62
2023/08/16 10:48:15;;;;;;;1.67;0.85;;;;;;;;;;5067947;28;20048;-62
2023/08/16 10:50:42;;;;;;;3.78;1.15;;;;;;;;;;5069206;28;20036;-62
2023/08/16 10:53:08;;;;;;;2.13;0.70;;;;;;;;;;5068514;28;20076;-62
2023/08/16 10:55:35;;;;;;;3.55;1.17;;;;;;;;;;5067540;28;20037;-62
2023/08/16 10:58:01;;;;;;;2.13;0.57;;;;;;;;;;5069631;28;20056;-62
2023/08/16 11:00:33;;;;;;;2.80;0.80;;;;;;;;;;5069018;28;20047;-62
2023/08/16 11:03:06;;;;;;;1.95;0.90;;;;;;;;;;5068179;28;20056;-62
2023/08/16 11:05:34;;;;;;;3.00;1.05;;;;;;;;;;5067456;28;20052;-62
2023/08/16 11:08:01;;;;;;;4.68;1.00;;;;;;;;;;5068450;28;20041;-62
2023/08/16 11:10:34;;;;;;;2.35;0.70;;;;;;;;;;5069594;28;20045;-62
2023/08/16 11:13:01;;;;;;;2.85;1.17;;;;;;;;;;5056630;28;20144;-62
2023/08/16 11:15:27;;;;;;;2.95;0.90;;;;;;;;;;5049297;28;20060;-62
2023/08/16 11:17:55;;;;;;;1.90;0.70;;;;;;;;;;5053498;28;20041;-62
2023/08/16 11:20:23;;;;;;;2.47;0.68;;;;;;;;;;5062706;28;20144;-62
2023/08/16 11:22:49;;;;;;;2.83;1.13;;;;;;;;;;5069557;28;20585;-62
2023/08/16 11:25:15;;;;;;;2.13;0.90;;;;;;;;;;5069832;28;20457;-62
2023/08/16 11:27:41;;;;;;;4.75;0.80;;;;;;;;;;5067593;28;20041;-62
2023/08/16 11:30:08;;;;;;;1.70;0.70;;;;;;;;;;5049000;28;20503;-62
2023/08/16 11:32:35;;;;;;;3.13;0.90;;;;;;;;;;5048909;28;20049;-62
2023/08/16 11:35:05;;;;;;;3.38;0.60;;;;;;;;;;5049484;28;20406;-62
2023/08/16 11:37:31;;;;;;;2.85;0.70;;;;;;;;;;5048430;28;20053;-62
2023/08/16 11:40:01;;;;;;;2.30;0.85;;;;;;;;;;5047790;28;20055;-62
2023/08/16 11:42:30;;;;;;;3.58;0.95;;;;;;;;;;5048543;28;20048;-62
2023/08/16 11:44:56;;;;;;;1.83;0.73;;;;;;;;;;5052983;28;20529;-62
2023/08/16 11:47:23;;;;;;;1.90;0.75;;;;;;;;;;5052875;28;20119;-62
2023/08/16 11:49:49;;;;;;;1.10;0.60;;;;;;;;;;5048738;28;20090;-62
2023/08/16 11:52:22;;;;;;;4.63;1.00;;;;;;;;;;5048324;28;20354;-62
2023/08/16 11:54:48;;;;;;;3.58;1.15;;;;;;;;;;5048188;28;20049;-62
2023/08/16 11:57:16;;;;;;;3.28;0.80;;;;;;;;;;5047928;28;20052;-62
2023/08/16 11:59:42;;;;;;;5.20;1.00;;;;;;;;;;5048589;28;20131;-62
2023/08/16 12:02:09;;;;;;;3.38;1.10;;;;;;;;;;5048666;28;20071;-61
2023/08/16 12:04:35;;;;;;;3.17;0.90;;;;;;;;;;5049736;28;20074;-62
2023/08/16 12:07:01;;;;;;;2.83;0.93;;;;;;;;;;5067457;28;20137;-62
2023/08/16 12:09:30;;;;;;;2.53;0.80;;;;;;;;;;5055143;28;20073;-62
2023/08/16 12:11:56;;;;;;;4.78;0.93;;;;;;;;;;5065339;28;20384;-62
2023/08/16 12:14:22;;;;;;;4.70;0.90;;;;;;;;;;5067403;28;20052;-62
2023/08/16 12:16:48;;;;;;;3.00;0.95;;;;;;;;;;5066977;28;20105;-62
2023/08/16 12:19:19;;;;;;;4.60;0.98;;;;;;;;;;5065984;28;20047;-61
2023/08/16 12:21:45;;;;;;;1.48;0.80;;;;;;;;;;5066088;28;20130;-62
2023/08/16 12:24:11;;;;;;;2.58;0.80;;;;;;;;;;5064789;28;20341;-62
2023/08/16 12:26:37;;;;;;;2.53;0.93;;;;;;;;;;5049020;28;20052;-62
2023/08/16 12:29:03;;;;;;;2.45;1.13;;;;;;;;;;5048739;28;20052;-62
2023/08/16 12:31:29;;;;;;;2.85;1.25;;;;;;;;;;5067400;28;20499;-63
2023/08/16 12:33:55;;;;;;;5.70;1.10;;;;;;;;;;5062122;28;20041;-62
2023/08/16 12:36:21;;;;;;;2.22;0.77;;;;;;;;;;5056738;28;20044;-60
2023/08/16 12:38:47;;;;;;;4.47;1.20;;;;;;;;;;5065460;28;20079;-60
2023/08/16 12:41:13;;;;;;;3.55;1.10;;;;;;;;;;5059563;28;20503;-60
2023/08/16 12:43:40;;;;;;;3.17;1.00;;;;;;;;;;5064164;28;20040;-60
2023/08/16 12:46:06;;;;;;;5.35;1.38;;;;;;;;;;5060207;28;20079;-61
2023/08/16 12:48:33;;;;;;;2.88;0.98;;;;;;;;;;5067752;28;20044;-60
2023/08/16 12:50:59;;;;;;;4.03;1.00;;;;;;;;;;5068713;28;20052;-60
2023/08/16 12:53:25;;;;;;;2.97;0.82;;;;;;;;;;5060026;28;20059;-60
2023/08/16 12:55:51;;;;;;;3.25;0.60;;;;;;;;;;5047254;28;20503;-60
2023/08/16 12:58:17;;;;;;;4.07;1.00;;;;;;;;;;5052911;28;20040;-60
2023/08/16 13:00:43;;;;;;;2.22;0.70;;;;;;;;;;5066098;28;20394;-60
2023/08/16 13:03:09;;;;;;;2.42;0.80;;;;;;;;;;5067047;28;20486;-61
2023/08/16 13:05:35;;;;;;;1.48;0.77;;;;;;;;;;5055073;28;20418;-61
2023/08/16 13:08:01;;;;;;;2.75;1.00;;;;;;;;;;5065802;28;20368;-61
2023/08/16 13:10:28;;;;;;;2.05;0.85;;;;;;;;;;5064685;28;20037;-61
2023/08/16 13:12:54;;;;;;;3.65;0.98;;;;;;;;;;5048671;28;20091;-61
2023/08/16 13:15:20;;;;;;;3.80;0.77;;;;;;;;;;5059975;28;20053;-61
2023/08/16 13:17:46;;;;;;;3.30;1.00;;;;;;;;;;5065260;28;20175;-61
2023/08/16 13:20:12;;;;;;;2.15;0.80;;;;;;;;;;5054509;28;20051;-60
2023/08/16 13:22:38;;;;;;;2.75;0.95;;;;;;;;;;5056793;28;20062;-60
2023/08/16 13:25:06;;;;;;;2.00;0.80;;;;;;;;;;5047945;28;20407;-60
2023/08/16 13:27:32;;;;;;;4.68;0.77;;;;;;;;;;5047784;28;20513;-60
2023/08/16 13:29:59;;;;;;;3.15;0.80;;;;;;;;;;5052003;28;20040;-61
2023/08/16 13:32:25;;;;;;;1.67;0.70;;;;;;;;;;5050445;28;20102;-61
2023/08/16 13:34:51;;;;;;;3.47;0.82;;;;;;;;;;5046658;28;20172;-60
2023/08/16 13:37:17;;;;;;;2.60;1.00;;;;;;;;;;5050442;28;20557;-61
2023/08/16 13:39:43;;;;;;;2.38;0.90;;;;;;;;;;5047409;28;20478;-60
2023/08/16 13:42:09;;;;;;;1.60;0.70;;;;;;;;;;5047066;28;20040;-61
2023/08/16 13:44:35;;;;;;;2.38;0.80;;;;;;;;;;5048126;28;20045;-60
2023/08/16 13:47:03;;;;;;;3.03;0.90;;;;;;;;;;5050651;28;20049;-61
2023/08/16 13:49:29;;;;;;;2.20;0.70;;;;;;;;;;5051282;28;20060;-61
2023/08/16 13:51:55;;;;;;;3.13;0.95;;;;;;;;;;5050912;28;20049;-61
2023/08/16 13:54:21;;;;;;;3.50;0.80;;;;;;;;;;5051005;28;20100;-60
2023/08/16 13:56:47;;;;;;;2.85;1.08;;;;;;;;;;5050792;28;20087;-61
2023/08/16 13:59:14;;;;;;;2.30;1.00;;;;;;;;;;5050998;28;20053;-60
2023/08/16 14:01:40;;;;;;;1.63;0.80;;;;;;;;;;5052973;28;20099;-61
2023/08/16 14:04:07;;;;;;;2.08;0.60;;;;;;;;;;5070490;28;20139;-60
2023/08/16 14:06:33;;;;;;;2.22;0.60;;;;;;;;;;5070591;28;20174;-60
2023/08/16 14:08:59;;;;;;;1.45;0.57;;;;;;;;;;5069524;28;20447;-60
2023/08/16 14:11:25;;;;;;;2.15;0.65;;;;;;;;;;5064076;28;20128;-60
2023/08/16 14:13:52;;;;;;;1.98;0.70;;;;;;;;;;5050835;28;20052;-60
2023/08/16 14:16:18;;;;;;;5.97;1.20;;;;;;;;;;5050464;28;20571;-60
2023/08/16 14:18:44;;;;;;;2.92;0.60;;;;;;;;;;5050432;28;20106;-60
2023/08/16 14:21:10;;;;;;;2.33;0.80;;;;;;;;;;5051395;28;20103;-61
2023/08/16 14:23:36;;;;;;;1.40;0.60;;;;;;;;;;5058444;28;20048;-60
2023/08/16 14:26:02;;;;;;;2.90;0.80;;;;;;;;;;5058744;28;20048;-61
2023/08/16 14:28:28;;;;;;;2.78;0.70;;;;;;;;;;5061969;28;20095;-61